createdAt,value
2022-10-11T00:02:34.054Z,82.60
2022-10-11T00:05:12.650Z,82.62
2022-10-11T00:07:48.428Z,82.66
2022-10-11T00:10:25.163Z,82.74
2022-10-11T00:13:01.850Z,82.83
2022-10-11T00:15:40.305Z,82.90
2022-10-11T00:18:16.046Z,82.96
2022-10-11T00:20:51.974Z,83.14
2022-10-11T00:23:27.750Z,83.27
2022-10-11T00:26:08.178Z,83.30
2022-10-11T00:28:45.215Z,83.41
2022-10-11T00:31:21.718Z,83.48
2022-10-11T00:33:58.540Z,83.50
2022-10-11T00:36:34.931Z,83.55
2022-10-11T00:39:10.929Z,83.67
2022-10-11T00:41:47.910Z,83.65
2022-10-11T00:44:29.156Z,83.67
2022-10-11T00:47:10.985Z,83.70
2022-10-11T00:49:54.923Z,83.71
2022-10-11T00:52:36.071Z,83.67
2022-10-11T00:55:18.393Z,83.52
2022-10-11T00:57:58.946Z,83.46
2022-10-11T01:00:35.150Z,83.48
2022-10-11T01:03:11.271Z,83.57
2022-10-11T01:06:14.565Z,83.51
2022-10-11T01:08:51.325Z,83.50
2022-10-11T01:11:31.126Z,83.50
2022-10-11T01:14:42.721Z,83.50
2022-10-11T01:17:35.813Z,83.53
2022-10-11T01:20:53.301Z,83.45
2022-10-11T01:24:15.596Z,83.38
2022-10-11T01:27:43.231Z,83.53
2022-10-11T01:30:29.637Z,83.62
2022-10-11T01:33:23.288Z,83.60
2022-10-11T01:36:15.694Z,83.66
2022-10-11T01:38:59.472Z,83.69
2022-10-11T01:41:42.158Z,83.76
2022-10-11T01:44:19.520Z,83.77
2022-10-11T01:46:57.098Z,83.88
2022-10-11T01:49:32.889Z,83.81
2022-10-11T01:52:12.547Z,83.82
2022-10-11T01:55:12.897Z,83.82
2022-10-11T01:58:10.854Z,83.88
2022-10-11T02:00:57.892Z,83.95
2022-10-11T02:03:46.517Z,84.00
2022-10-11T02:06:37.142Z,84.10
2022-10-11T02:09:25.667Z,84.20
2022-10-11T02:12:11.530Z,84.20
2022-10-11T02:14:53.124Z,84.20
2022-10-11T02:17:36.747Z,84.26
2022-10-11T02:20:22.910Z,84.39
2022-10-11T02:23:04.601Z,84.50
2022-10-11T02:25:41.256Z,84.44
2022-10-11T02:28:24.189Z,84.46
2022-10-11T02:31:03.603Z,84.34
2022-10-11T02:33:45.740Z,84.30
2022-10-11T02:36:28.159Z,84.24
2022-10-11T02:39:17.291Z,84.21
2022-10-11T02:41:58.348Z,84.20
2022-10-11T02:44:41.623Z,84.18
2022-10-11T02:47:18.151Z,84.29
2022-10-11T02:49:54.201Z,84.39
2022-10-11T02:52:30.311Z,84.49
2022-10-11T02:55:07.649Z,84.63
2022-10-11T02:57:43.747Z,84.78
2022-10-11T03:00:21.119Z,84.80
2022-10-11T03:02:56.883Z,84.84
2022-10-11T03:05:37.252Z,84.99
2022-10-11T03:08:16.070Z,85.06
2022-10-11T03:10:51.912Z,85.10
2022-10-11T03:13:28.813Z,85.16
2022-10-11T03:16:04.870Z,85.26
2022-10-11T03:18:40.788Z,85.39
2022-10-11T03:21:16.751Z,85.52
2022-10-11T03:23:53.388Z,85.58
2022-10-11T03:26:29.223Z,85.69
2022-10-11T03:29:05.040Z,85.70
2022-10-11T03:31:40.898Z,85.70
2022-10-11T03:34:16.853Z,85.72
2022-10-11T03:36:52.487Z,85.70
2022-10-11T03:39:28.254Z,85.71
2022-10-11T03:42:04.441Z,85.72
2022-10-11T03:44:41.916Z,85.70
2022-10-11T03:47:17.769Z,85.63
2022-10-11T03:49:54.565Z,85.67
2022-10-11T03:52:30.497Z,85.68
2022-10-11T03:55:07.339Z,85.72
2022-10-11T03:57:43.301Z,85.92
2022-10-11T04:00:20.315Z,86.15
2022-10-11T04:02:56.113Z,86.19
2022-10-11T04:05:32.036Z,86.07
2022-10-11T04:08:11.905Z,86.00
2022-10-11T04:10:49.275Z,85.92
2022-10-11T04:13:25.227Z,85.94
2022-10-11T04:16:01.458Z,85.82
2022-10-11T04:18:37.291Z,85.69
2022-10-11T04:21:15.378Z,85.57
2022-10-11T04:23:51.287Z,85.45
2022-10-11T04:26:27.686Z,85.46
2022-10-11T04:29:03.428Z,85.46
2022-10-11T04:31:39.172Z,85.35
2022-10-11T04:34:15.127Z,85.19
2022-10-11T04:36:51.091Z,85.07
2022-10-11T04:39:27.030Z,84.92
2022-10-11T04:42:02.759Z,84.77
2022-10-11T04:44:38.735Z,84.65
2022-10-11T04:47:14.835Z,84.50
2022-10-11T04:49:50.623Z,84.33
2022-10-11T04:52:27.732Z,84.24
2022-10-11T04:55:03.656Z,84.13
2022-10-11T04:57:39.536Z,84.05
2022-10-11T05:00:18.752Z,83.93
2022-10-11T05:02:55.339Z,83.90
2022-10-11T05:05:31.205Z,83.86
2022-10-11T05:08:07.243Z,83.75
2022-10-11T05:10:43.158Z,83.68
2022-10-11T05:13:18.998Z,83.59
2022-10-11T05:15:55.143Z,83.35
2022-10-11T05:18:31.876Z,83.18
2022-10-11T05:21:15.279Z,82.92
2022-10-11T05:23:53.685Z,82.54
2022-10-11T05:26:30.873Z,82.29
2022-10-11T05:29:06.881Z,82.00
2022-10-11T05:31:43.359Z,81.90
2022-10-11T05:34:19.314Z,81.82
2022-10-11T05:36:56.596Z,81.80
2022-10-11T05:39:33.066Z,81.77
2022-10-11T05:42:10.148Z,81.62
2022-10-11T05:44:46.075Z,81.49
2022-10-11T05:47:21.888Z,81.34
2022-10-11T05:49:58.402Z,81.20
2022-10-11T05:52:34.916Z,81.12
2022-10-11T05:55:12.880Z,81.11
2022-10-11T05:57:50.432Z,80.94
2022-10-11T06:00:26.898Z,80.81
2022-10-11T06:03:02.598Z,80.70
2022-10-11T06:05:40.006Z,80.63
2022-10-11T06:08:16.477Z,80.46
2022-10-11T06:10:52.626Z,80.38
2022-10-11T06:13:28.528Z,79.94
2022-10-11T06:16:06.872Z,79.85
2022-10-11T06:18:43.262Z,79.62
2022-10-11T06:21:18.975Z,79.56
2022-10-11T06:24:01.088Z,79.51
2022-10-11T06:26:37.911Z,79.41
2022-10-11T06:29:13.677Z,79.21
2022-10-11T06:31:50.555Z,79.03
2022-10-11T06:34:26.776Z,79.02
2022-10-11T06:37:03.446Z,78.88
2022-10-11T06:39:39.455Z,78.76
2022-10-11T06:42:16.026Z,78.79
2022-10-11T06:44:51.883Z,78.74
2022-10-11T06:47:28.099Z,78.37
2022-10-11T06:50:04.070Z,78.21
2022-10-11T06:52:40.014Z,78.05
2022-10-11T06:55:16.196Z,77.88
2022-10-11T06:57:52.232Z,77.70
2022-10-11T07:00:28.007Z,76.87
2022-10-11T07:03:03.890Z,76.33
2022-10-11T07:05:39.832Z,75.96
2022-10-11T07:08:15.568Z,75.71
2022-10-11T07:10:51.766Z,75.77
2022-10-11T07:13:27.534Z,75.47
2022-10-11T07:16:05.529Z,75.36
2022-10-11T07:18:41.831Z,75.13
2022-10-11T07:21:19.097Z,74.83
2022-10-11T07:23:55.461Z,75.01
2022-10-11T07:26:38.337Z,74.79
2022-10-11T07:29:16.068Z,74.49
2022-10-11T07:31:52.053Z,74.33
2022-10-11T07:34:28.089Z,74.32
2022-10-11T07:37:04.014Z,73.94
2022-10-11T07:39:39.985Z,73.56
2022-10-11T07:42:15.792Z,73.91
2022-10-11T07:44:51.711Z,74.54
2022-10-11T07:47:27.502Z,75.35
2022-10-11T07:50:03.665Z,75.73
2022-10-11T07:52:40.748Z,76.30
2022-10-11T07:55:17.441Z,76.85
2022-10-11T07:57:53.358Z,76.87
2022-10-11T08:00:29.432Z,76.98
2022-10-11T08:03:08.171Z,77.26
2022-10-11T08:05:44.059Z,77.47
2022-10-11T08:09:47.649Z,77.40
2022-10-11T08:12:42.818Z,77.84
2022-10-11T08:18:13.244Z,78.03
2022-10-11T08:20:49.508Z,78.08
2022-10-11T08:23:25.807Z,78.27
2022-10-11T08:26:02.361Z,78.35
2022-10-11T08:28:38.820Z,78.41
2022-10-11T08:31:18.469Z,78.52
2022-10-11T08:33:54.432Z,78.57
2022-10-11T08:36:30.311Z,78.50
2022-10-11T08:39:09.338Z,78.40
2022-10-11T08:41:53.732Z,78.33
2022-10-11T08:45:09.466Z,78.41
2022-10-11T08:47:44.545Z,78.32
2022-10-11T08:50:24.959Z,78.35
2022-10-11T08:53:08.730Z,78.25
2022-10-11T08:55:51.441Z,78.39
2022-10-11T08:58:39.177Z,78.33
2022-10-11T09:01:24.618Z,78.41
2022-10-11T09:04:01.440Z,78.46
2022-10-11T09:06:59.239Z,78.53
2022-10-11T09:10:09.827Z,78.54
2022-10-11T09:12:59.542Z,78.47
2022-10-11T09:15:48.640Z,78.40
2022-10-11T09:18:57.779Z,78.18
2022-10-11T09:21:49.514Z,77.79
2022-10-11T09:24:57.049Z,77.45
2022-10-11T09:28:03.190Z,77.37
2022-10-11T09:30:40.676Z,76.30
2022-10-11T09:33:28.296Z,75.83
2022-10-11T09:36:13.179Z,75.76
2022-10-11T09:39:05.739Z,75.13
2022-10-11T09:41:55.352Z,74.94
2022-10-11T09:44:36.810Z,74.63
2022-10-11T09:47:24.405Z,74.87
2022-10-11T09:50:06.606Z,73.84
2022-10-11T09:52:54.061Z,72.88
2022-10-11T09:55:50.417Z,72.61
2022-10-11T09:58:38.679Z,71.26
2022-10-11T10:01:26.996Z,70.89
2022-10-11T10:04:18.242Z,70.81
2022-10-11T10:07:13.170Z,70.47
2022-10-11T10:09:50.210Z,69.47
2022-10-11T10:12:30.465Z,67.78
2022-10-11T10:15:20.887Z,66.99
2022-10-11T10:17:57.534Z,65.84
2022-10-11T10:20:37.177Z,66.53
2022-10-11T10:23:27.503Z,67.30
2022-10-11T10:26:21.005Z,66.40
2022-10-11T10:29:18.684Z,66.38
2022-10-11T10:32:13.750Z,65.56
2022-10-11T10:35:08.803Z,65.91
2022-10-11T10:37:54.364Z,66.18
2022-10-11T10:40:41.196Z,65.81
2022-10-11T10:43:25.691Z,65.62
2022-10-11T10:46:44.971Z,64.54
2022-10-11T10:53:06.224Z,65.52
2022-10-11T10:55:52.299Z,65.25
2022-10-11T10:58:58.843Z,64.92
2022-10-11T11:01:43.805Z,65.00
2022-10-11T11:04:36.121Z,65.41
2022-10-11T11:07:29.047Z,65.46
2022-10-11T11:10:14.583Z,64.75
2022-10-11T11:13:04.032Z,64.89
2022-10-11T11:15:49.165Z,65.10
2022-10-11T11:18:46.177Z,64.79
2022-10-11T11:21:43.926Z,64.68
2022-10-11T11:24:38.921Z,64.42
2022-10-11T11:27:39.298Z,64.27
2022-10-11T11:30:24.063Z,64.33
2022-10-11T11:33:14.818Z,63.64
2022-10-11T11:35:55.239Z,62.73
2022-10-11T11:38:46.353Z,61.66
2022-10-11T11:41:29.689Z,61.44
2022-10-11T11:44:16.950Z,61.98
2022-10-11T11:47:01.468Z,61.89
2022-10-11T11:52:34.390Z,62.15
2022-10-11T11:55:23.307Z,62.27
2022-10-11T11:58:17.570Z,62.93
2022-10-11T12:01:04.360Z,62.69
2022-10-11T12:03:47.233Z,62.87
2022-10-11T12:06:32.446Z,63.03
2022-10-11T12:09:23.750Z,62.98
2022-10-11T12:12:03.931Z,63.04
2022-10-11T12:14:45.326Z,62.74
2022-10-11T12:17:25.471Z,63.05
2022-10-11T12:20:25.780Z,62.82
2022-10-11T12:23:06.357Z,63.75
2022-10-11T12:26:31.755Z,63.65
2022-10-11T12:29:51.055Z,63.72
2022-10-11T12:33:04.310Z,63.23
2022-10-11T12:36:08.210Z,63.51
2022-10-11T12:38:44.739Z,63.38
2022-10-11T12:42:31.447Z,63.33
2022-10-11T12:45:38.555Z,63.30
2022-10-11T12:48:41.035Z,62.84
2022-10-11T12:51:39.111Z,62.34
2022-10-11T12:54:54.597Z,63.33
2022-10-11T12:58:17.510Z,63.61
2022-10-11T13:01:34.703Z,63.63
2022-10-11T13:04:14.150Z,63.82
2022-10-11T13:06:56.717Z,63.26
2022-10-11T13:09:39.784Z,63.39
2022-10-11T13:12:23.311Z,63.59
2022-10-11T13:15:09.907Z,63.76
2022-10-11T13:17:46.168Z,63.06
2022-10-11T13:20:30.325Z,62.98
2022-10-11T13:23:19.554Z,63.13
2022-10-11T13:25:57.059Z,63.17
2022-10-11T13:28:36.457Z,63.40
2022-10-11T13:31:13.559Z,63.41
2022-10-11T13:33:50.037Z,64.45
2022-10-11T13:36:28.617Z,63.87
2022-10-11T13:39:05.470Z,64.19
2022-10-11T13:41:42.194Z,64.00
2022-10-11T13:44:18.461Z,64.28
2022-10-11T13:46:55.260Z,64.57
2022-10-11T13:49:40.277Z,64.63
2022-10-11T13:52:28.288Z,64.87
2022-10-11T13:55:26.605Z,65.24
2022-10-11T13:58:13.881Z,65.38
2022-10-11T14:01:03.226Z,65.56
2022-10-11T14:03:47.887Z,65.40
2022-10-11T14:06:24.080Z,65.09
2022-10-11T14:09:01.519Z,64.90
2022-10-11T14:11:42.655Z,65.14
2022-10-11T14:14:51.978Z,64.70
2022-10-11T14:17:41.981Z,64.64
2022-10-11T14:20:32.956Z,64.96
2022-10-11T14:23:09.586Z,65.39
2022-10-11T14:25:45.443Z,65.93
2022-10-11T14:28:21.208Z,66.13
2022-10-11T14:30:57.077Z,66.21
2022-10-11T14:33:33.610Z,66.50
2022-10-11T14:36:10.752Z,66.82
2022-10-11T14:38:46.465Z,67.09
2022-10-11T14:41:22.684Z,67.39
2022-10-11T14:43:58.438Z,67.64
2022-10-11T14:46:35.975Z,67.97
2022-10-11T14:49:19.878Z,68.22
2022-10-11T14:51:58.119Z,68.36
2022-10-11T14:54:35.931Z,68.40
2022-10-11T14:57:14.436Z,68.55
2022-10-11T14:59:50.262Z,68.57
2022-10-11T15:02:26.128Z,68.82
2022-10-11T15:05:01.989Z,68.86
2022-10-11T15:07:37.846Z,69.05
2022-10-11T15:10:26.200Z,69.21
2022-10-11T15:13:02.664Z,69.11
2022-10-11T15:15:42.160Z,69.13
2022-10-11T15:18:21.288Z,68.93
2022-10-11T15:20:58.266Z,69.07
2022-10-11T15:23:34.805Z,68.96
2022-10-11T15:26:14.563Z,69.09
2022-10-11T15:28:52.001Z,69.11
2022-10-11T15:31:29.709Z,69.11
2022-10-11T15:34:05.619Z,69.22
2022-10-11T15:36:41.512Z,69.39
2022-10-11T15:39:32.620Z,69.74
2022-10-11T15:42:08.912Z,70.11
2022-10-11T15:44:44.898Z,70.33
2022-10-11T15:47:20.732Z,70.55
2022-10-11T15:49:56.759Z,70.78
2022-10-11T15:52:32.533Z,71.06
2022-10-11T15:55:09.859Z,71.21
2022-10-11T15:57:45.708Z,71.38
2022-10-11T16:00:23.714Z,71.50
2022-10-11T16:03:01.610Z,71.61
2022-10-11T16:05:37.380Z,71.71
2022-10-11T16:08:13.974Z,71.81
2022-10-11T16:10:50.074Z,72.06
2022-10-11T16:13:26.018Z,72.26
2022-10-11T16:16:04.340Z,72.52
2022-10-11T16:18:40.986Z,72.74
2022-10-11T16:21:17.619Z,73.03
2022-10-11T16:23:53.551Z,73.38
2022-10-11T16:26:29.568Z,73.71
2022-10-11T16:29:06.048Z,73.90
2022-10-11T16:31:42.094Z,74.10
2022-10-11T16:34:17.804Z,74.32
2022-10-11T16:36:53.545Z,74.44
2022-10-11T16:39:29.781Z,74.69
2022-10-11T16:42:06.327Z,74.99
2022-10-11T16:44:42.755Z,75.14
2022-10-11T16:47:19.023Z,75.41
2022-10-11T16:49:54.953Z,75.88
2022-10-11T16:52:31.111Z,76.08
2022-10-11T16:55:20.573Z,76.26
2022-10-11T16:57:59.007Z,76.42
2022-10-11T17:00:35.264Z,76.42
2022-10-11T17:03:11.198Z,76.44
2022-10-11T17:05:48.035Z,76.60
2022-10-11T17:08:24.321Z,76.87
2022-10-11T17:11:00.922Z,76.97
2022-10-11T17:13:37.305Z,77.03
2022-10-11T17:16:13.889Z,77.12
2022-10-11T17:18:50.197Z,77.31
2022-10-11T17:21:26.491Z,77.40
2022-10-11T17:24:02.445Z,77.47
2022-10-11T17:26:38.717Z,77.52
2022-10-11T17:29:21.189Z,77.50
2022-10-11T17:31:57.683Z,77.27
2022-10-11T17:34:34.050Z,77.20
2022-10-11T17:37:10.312Z,77.34
2022-10-11T17:39:46.373Z,77.42
2022-10-11T17:42:22.161Z,77.37
2022-10-11T17:44:58.184Z,77.58
2022-10-11T17:47:34.535Z,77.68
2022-10-11T17:50:12.559Z,77.93
2022-10-11T17:52:49.050Z,78.07
2022-10-11T17:55:24.992Z,78.28
2022-10-11T17:58:00.907Z,78.40
2022-10-11T18:00:37.339Z,78.53
2022-10-11T18:03:13.384Z,78.57
2022-10-11T18:05:49.387Z,78.40
2022-10-11T18:08:25.265Z,78.44
2022-10-11T18:11:02.191Z,78.40
2022-10-11T18:13:38.125Z,78.49
2022-10-11T18:16:15.873Z,78.53
2022-10-11T18:18:52.129Z,78.66
2022-10-11T18:21:33.977Z,78.49
2022-10-11T18:24:18.208Z,78.68
2022-10-11T18:26:56.931Z,78.68
2022-10-11T18:29:38.214Z,78.96
2022-10-11T18:32:18.358Z,78.95
2022-10-11T18:34:55.899Z,78.96
2022-10-11T18:37:33.115Z,79.31
2022-10-11T18:40:11.497Z,79.10
2022-10-11T18:42:47.612Z,79.33
2022-10-11T18:45:23.547Z,79.28
2022-10-11T18:47:59.724Z,79.34
2022-10-11T18:50:35.990Z,79.33
2022-10-11T18:53:12.103Z,79.23
2022-10-11T18:55:48.106Z,79.14
2022-10-11T18:58:24.012Z,78.96
2022-10-11T19:01:07.265Z,79.09
2022-10-11T19:03:43.405Z,79.17
2022-10-11T19:06:23.490Z,79.29
2022-10-11T19:09:05.842Z,79.28
2022-10-11T19:11:40.620Z,79.32
2022-10-11T19:14:20.495Z,79.41
2022-10-11T19:16:58.027Z,79.58
2022-10-11T19:19:34.736Z,79.88
2022-10-11T19:22:10.691Z,80.15
2022-10-11T19:24:46.553Z,80.09
2022-10-11T19:27:22.250Z,80.07
2022-10-11T19:29:58.462Z,80.08
2022-10-11T19:32:34.235Z,80.25
2022-10-11T19:35:15.297Z,80.44
2022-10-11T19:37:54.909Z,80.13
2022-10-11T19:40:33.120Z,79.99
2022-10-11T19:43:10.225Z,79.95
2022-10-11T19:45:46.186Z,79.84
2022-10-11T19:48:22.576Z,79.74
2022-10-11T19:51:07.792Z,79.80
2022-10-11T19:53:44.162Z,79.97
2022-10-11T19:56:22.492Z,80.16
2022-10-11T19:58:59.131Z,80.23
2022-10-11T20:01:37.125Z,80.22
2022-10-11T20:04:33.049Z,80.47
2022-10-11T20:07:12.227Z,80.76
2022-10-11T20:09:48.351Z,80.84
2022-10-11T20:12:24.322Z,80.89
2022-10-11T20:15:00.468Z,80.85
2022-10-11T20:17:49.133Z,80.80
2022-10-11T20:20:24.975Z,80.75
2022-10-11T20:23:01.033Z,80.60
2022-10-11T20:25:36.878Z,80.41
2022-10-11T20:28:12.792Z,80.34
2022-10-11T20:30:49.319Z,80.79
2022-10-11T20:33:26.225Z,80.99
2022-10-11T20:36:08.983Z,80.95
2022-10-11T20:38:48.918Z,80.95
2022-10-11T20:41:31.269Z,81.12
2022-10-11T20:44:09.792Z,81.28
2022-10-11T20:46:45.600Z,81.46
2022-10-11T20:49:22.692Z,81.53
2022-10-11T20:51:58.442Z,81.71
2022-10-11T20:54:35.714Z,81.61
2022-10-11T20:57:12.285Z,81.51
2022-10-11T20:59:48.815Z,81.32
2022-10-11T21:02:24.856Z,81.18
2022-10-11T21:05:00.804Z,81.16
2022-10-11T21:07:37.082Z,81.10
2022-10-11T21:10:13.691Z,80.84
2022-10-11T21:12:49.485Z,80.89
2022-10-11T21:15:25.756Z,81.04
2022-10-11T21:18:01.677Z,81.16
2022-10-11T21:20:40.190Z,81.35
2022-10-11T21:23:18.915Z,81.57
2022-10-11T21:25:54.811Z,81.51
2022-10-11T21:28:30.947Z,81.54
2022-10-11T21:31:13.234Z,81.55
2022-10-11T21:33:49.934Z,81.40
2022-10-11T21:36:27.157Z,81.73
2022-10-11T21:39:03.044Z,81.82
2022-10-11T21:41:38.853Z,81.86
2022-10-11T21:44:15.674Z,81.97
2022-10-11T21:47:07.732Z,81.95
2022-10-11T21:49:43.740Z,82.02
2022-10-11T21:52:19.595Z,82.13
2022-10-11T21:54:55.516Z,82.22
2022-10-11T21:57:31.270Z,82.18
2022-10-11T22:00:10.863Z,82.21
2022-10-11T22:02:54.130Z,82.25
2022-10-11T22:05:29.964Z,82.28
2022-10-11T22:08:06.094Z,82.38
2022-10-11T22:10:43.678Z,82.50
2022-10-11T22:13:19.795Z,82.69
2022-10-11T22:15:56.730Z,82.74
2022-10-11T22:18:33.820Z,82.82
2022-10-11T22:21:13.720Z,83.04
2022-10-11T22:23:52.791Z,83.13
2022-10-11T22:26:31.980Z,83.03
2022-10-11T22:29:08.063Z,83.24
2022-10-11T22:31:44.455Z,83.39
2022-10-11T22:34:20.325Z,83.41
2022-10-11T22:36:56.064Z,83.36
2022-10-11T22:39:32.113Z,83.24
2022-10-11T22:42:08.109Z,83.12
2022-10-11T22:44:43.869Z,83.08
2022-10-11T22:47:19.680Z,83.13
2022-10-11T22:49:55.504Z,83.08
2022-10-11T22:52:31.379Z,82.84
2022-10-11T22:55:08.149Z,82.67
2022-10-11T22:57:43.854Z,82.49
2022-10-11T23:00:21.455Z,82.39
2022-10-11T23:02:57.599Z,82.31
2022-10-11T23:05:33.484Z,82.29
2022-10-11T23:08:10.439Z,82.38
2022-10-11T23:10:46.195Z,82.43
2022-10-11T23:13:21.947Z,82.50
2022-10-11T23:15:57.683Z,82.52
2022-10-11T23:18:33.504Z,82.63
2022-10-11T23:21:10.277Z,82.55
2022-10-11T23:23:46.161Z,82.49
2022-10-11T23:26:22.536Z,82.42
2022-10-11T23:29:00.394Z,82.34
2022-10-11T23:31:36.434Z,82.10
2022-10-11T23:34:12.100Z,82.05
2022-10-11T23:36:47.905Z,81.95
2022-10-11T23:39:24.094Z,82.05
2022-10-11T23:41:59.973Z,81.94
2022-10-11T23:44:35.749Z,82.09
2022-10-11T23:47:11.612Z,82.32
2022-10-11T23:49:47.785Z,82.53
2022-10-11T23:52:23.644Z,82.70
2022-10-11T23:54:59.381Z,82.73
2022-10-11T23:57:35.471Z,82.69
